Address 0x4e04768cdd20e35ee87e6a89fc5b920f9492ffc5 5

My Name Tag:
Not Available

Txn Hash Method
Block
From
To
Value [Txn Fee]
0x6327d0c08de28ce84bd4c0a1ccfa0563ea2158648f8ea7326d1db80c6832b281Transfer165792672021-07-20 8:40:5891 days 8 hrs ago0x4e04768cdd20e35ee87e6a89fc5b920f9492ffc5OUT0x22cb224f9fa487dce907135b57c779f1f32251d40.335491637125 MATIC0.00063
0xfe94aa567446e12aee9c60c414cb5fc52e809ba1702d069d923fa8b4450c9409Set Master Contr...121170192021-03-29 15:15:27204 days 2 hrs ago0x4e04768cdd20e35ee87e6a89fc5b920f9492ffc5OUT 0xf5bce5077908a1b7370b9ae04adc565ebd6439660 MATIC0.000047818
0x0283440b44bb43298fb00615ca82f601eb0cfeda9f0c59851e7af58ed21af59dSafe Transfer Fr...121128542021-03-29 12:33:51204 days 5 hrs ago0x4e04768cdd20e35ee87e6a89fc5b920f9492ffc5OUT 0x4ca8837b5782fbee238f9eeafcf998d7c23dcbef0 MATIC0.000043034
0x9f7a6ff1459a02c63f0e2c9e8967d7144df4487a262fd354b34bae7e36caeed0Mint121128452021-03-29 12:33:15204 days 5 hrs ago0x4e04768cdd20e35ee87e6a89fc5b920f9492ffc5OUT 0xefac517c6ad926ce25c3af00de22a58ec2e34e9e0 MATIC0.000042056
0x5d75bb6dd264083fe8b9d2041a544eb635588ca05d392971d43131b800a9e5a4Safe Transfer Fr...121128402021-03-29 12:32:55204 days 5 hrs ago0x4e04768cdd20e35ee87e6a89fc5b920f9492ffc5OUT 0x4ca8837b5782fbee238f9eeafcf998d7c23dcbef0 MATIC0.000058022
0x84f102c8edbf5e0a886b2054f8fb84c68c85e9fa39bc1d58cadcf30ac1593c6d0x60806040121127972021-03-29 12:31:07204 days 5 hrs ago0x4e04768cdd20e35ee87e6a89fc5b920f9492ffc5OUT Contract Creation0 MATIC0.000508546
0x909adeae6601a745c196743c604c1f51bafe1415ffb7ab376ddad52d7568cbc4Nft To Stable118617882021-03-22 18:26:09210 days 23 hrs ago0x4e04768cdd20e35ee87e6a89fc5b920f9492ffc5OUT 0xa7b06978856182668e29fb91af30c0b1226e7e010 MATIC0.000138886875
0x0729d89108f27d67458de1cda43174fc801a99d2f110241e76249092ebc82ce4Nft To Stable118270632021-03-21 20:00:59211 days 21 hrs ago0x4e04768cdd20e35ee87e6a89fc5b920f9492ffc5OUT 0xa7b06978856182668e29fb91af30c0b1226e7e010 MATIC0.000222219
0xc3f3b11e48fac934f80f240b95665195e9bd3e9f2b0e659212c2cc0df0f03f97Nft To Stable118246862021-03-21 18:28:37211 days 23 hrs ago0x4e04768cdd20e35ee87e6a89fc5b920f9492ffc5OUT 0xa7b06978856182668e29fb91af30c0b1226e7e010 MATIC0.000222219
0x21d2cd4dcadb57676478179d57dab18b9d8ea1637e4a549364c876912d5359b2Nft To Stable118243172021-03-21 18:13:47211 days 23 hrs ago0x4e04768cdd20e35ee87e6a89fc5b920f9492ffc5OUT 0xa7b06978856182668e29fb91af30c0b1226e7e010 MATIC0.000222219
0xd160ceb14fdf7a09fbcf99044bfa8160030cfbf5b71a47d09fc2892ee3ae00feNft To Stable118241432021-03-21 18:07:51211 days 23 hrs ago0x4e04768cdd20e35ee87e6a89fc5b920f9492ffc5OUT 0xa7b06978856182668e29fb91af30c0b1226e7e010 MATIC0.000222219
0x85326658c8ffc5794d8ab3d5fc43c2e6561083c794c18aa1b9e506960931d114Add Liquidity118229042021-03-21 17:20:57212 days 18 mins ago0x4e04768cdd20e35ee87e6a89fc5b920f9492ffc5OUT 0xa7b06978856182668e29fb91af30c0b1226e7e010 MATIC0.000148315
0x42b8766270d0c374d607858f366fa2f0e518c6d5656da8de8527e3e48a950c31Approve118228382021-03-21 17:18:23212 days 21 mins ago0x4e04768cdd20e35ee87e6a89fc5b920f9492ffc5OUT 0x8bdda8c820933f5fbfbeeeb3eb8298072c405c7d0 MATIC0.000044192
0x336caa5fcefad0fac3fa5ea2ce67a6395a88ce16e741f4b0e70d5ef128c419a8Set Approval For...118228332021-03-21 17:18:03212 days 21 mins ago0x4e04768cdd20e35ee87e6a89fc5b920f9492ffc5OUT 0x4ca8837b5782fbee238f9eeafcf998d7c23dcbef0 MATIC0.000134673
0x922b2cacadbb1db00b74d5dcce47aaf7eec9bde223b46febc3ea0cc4136f90970x60806040118228272021-03-21 17:17:39212 days 22 mins ago0x4e04768cdd20e35ee87e6a89fc5b920f9492ffc5OUT Contract Creation0 MATIC0.002779112
0x3e7b32733e72930f4713d8dc3564c86435e9255705a7aff3d868bc61ab8a53ea0x60806040118228202021-03-21 17:17:11212 days 22 mins ago0x4e04768cdd20e35ee87e6a89fc5b920f9492ffc5OUT Contract Creation0 MATIC0.002012805
0x7b4dd41c1c5332efe8f4b34f76d37597ec9f5565d75cf12b65f2f9ccd25e5f630x60806040118228162021-03-21 17:16:55212 days 22 mins ago0x4e04768cdd20e35ee87e6a89fc5b920f9492ffc5OUT Contract Creation0 MATIC0.003324627
0xa8d9eeb6a4fea446257cad620d1d03aa0e8e9aada549ffab244bbae2c2aea20fTransfer118228032021-03-21 17:16:03212 days 23 mins ago0x4e04768cdd20e35ee87e6a89fc5b920f9492ffc5OUT0xa09ab1abecb91cac38c3240912d2a1b31e22f1470.1 MATIC0.000021
0x77e227450059bd33adb0ca3b84ff3574274995fe941b1f290274143d50a053cfNft To Stable118219562021-03-21 16:42:11212 days 57 mins ago0x4e04768cdd20e35ee87e6a89fc5b920f9492ffc5OUT 0xa2db9cd5ab3e891ce129b631f5863155e5762fdd0 MATIC0.000075538
0x7365c07fdb0254cc12f3ce4a151881d2232665714bbb74989bf22cbbaf490a73Nft To Stable118216652021-03-21 16:31:59212 days 1 hr ago0x4e04768cdd20e35ee87e6a89fc5b920f9492ffc5OUT 0xa2db9cd5ab3e891ce129b631f5863155e5762fdd0 MATIC0.000226614
0x76632fa2d2dc504328327d9d96a23eaf0fe21c95f1296f90ce0f873eadd151a0Add Liquidity118213122021-03-21 16:17:45212 days 1 hr ago0x4e04768cdd20e35ee87e6a89fc5b920f9492ffc5OUT 0xa2db9cd5ab3e891ce129b631f5863155e5762fdd0 MATIC0.000148315
0xb1ffe38a9bc5ea50a6317273c1431c5436a8efc63fcddecaf9074e499ce9d240Set Approval For...118212822021-03-21 16:16:41212 days 1 hr ago0x4e04768cdd20e35ee87e6a89fc5b920f9492ffc5OUT 0x027125316c87e5fda12881248fd00fb81a770db50 MATIC0.000044891
0x83081712eca29ff2d3a29551abfddfc11290b8d20e2d6a6648422a8a305c425aApprove118212722021-03-21 16:16:21212 days 1 hr ago0x4e04768cdd20e35ee87e6a89fc5b920f9492ffc5OUT 0x3deb26547a55f9ef8885e34d79dd9c425b87d4e60 MATIC0.000132576
0x90095521746b4a6965eb59c9b24d71d0d6fc3b027861501c482121a6cc540f3e0x60806040118212402021-03-21 16:15:13212 days 1 hr ago0x4e04768cdd20e35ee87e6a89fc5b920f9492ffc5OUT Contract Creation0 MATIC0.008233581
0xae8ea19e1bd8649517789dd47867408dd9639c8fe8f0d0660271f0cdb4301ced0x60806040118212262021-03-21 16:14:45212 days 1 hr ago0x4e04768cdd20e35ee87e6a89fc5b920f9492ffc5OUT Contract Creation0 MATIC0.006038415
[ Download CSV Export 
Parent Txn Hash Block From To Value
Loading

Contract Name:
0 MATIC

Compiler Version
0

Optimization Enabled:
0 MATIC

Other Settings:
-NA-
Block Transaction Gas Used Reward
Age Block Fee Address BC Fee Address Voting Power Jailed Incoming
Block Uncle Number Difficulty Gas Used Reward
Loading